Time,TemperatureF,DewpointF,PressureIn,WindDirection,WindDirectionDegrees,WindSpeedMPH,WindSpeedGustMPH,Humidity,HourlyPrecipIn,Conditions,Clouds,dailyrainin,SoftwareType,DateUTC
2013-09-17 00:24:00,61.0,59.0,30.17,SSE,161,0.0,0.0,92,0.00,,,-99.99,,2013-09-17 04:24:00,
2013-09-17 00:53:00,61.0,59.0,30.17,South,178,0.0,0.0,92,0.00,,,-99.99,,2013-09-17 04:53:00,
2013-09-17 01:23:00,61.0,59.0,30.17,SE,131,0.0,0.0,92,0.00,,,-99.99,,2013-09-17 05:23:00,
2013-09-17 01:52:00,61.0,59.0,30.16,SE,132,0.0,0.0,92,0.00,,,-99.99,,2013-09-17 05:52:00,
2013-09-17 02:12:00,61.0,59.0,30.16,SE,132,0.0,0.0,92,0.00,,,-99.99,,2013-09-17 06:12:00,
2013-09-17 02:22:00,61.0,59.0,30.15,SE,146,0.0,0.0,92,0.00,,,-99.99,,2013-09-17 06:22:00,
2013-09-17 02:52:00,61.0,59.0,30.15,East,88,0.0,0.0,92,0.00,,,-99.99,,2013-09-17 06:52:00,
2013-09-17 03:11:00,61.0,59.0,30.16,East,88,0.0,0.0,92,0.00,,,-99.99,,2013-09-17 07:11:00,
2013-09-17 03:23:00,62.0,59.0,30.16,SSE,159,0.0,0.0,91,0.00,,,-99.99,,2013-09-17 07:23:00,
2013-09-17 03:52:00,62.0,59.0,30.14,SSE,159,0.0,0.0,91,0.00,,,-99.99,,2013-09-17 07:52:00,
2013-09-17 04:12:00,62.0,59.0,30.14,SSE,159,0.0,0.0,91,0.00,,,-99.99,,2013-09-17 08:12:00,
2013-09-17 04:22:00,62.0,59.0,30.14,SSE,159,0.0,0.0,91,0.00,,,-99.99,,2013-09-17 08:22:00,
2013-09-17 04:52:00,62.0,59.0,30.13,SSE,158,0.0,0.0,91,0.00,,,-99.99,,2013-09-17 08:52:00,
2013-09-17 05:12:00,62.0,59.0,30.12,SSE,158,0.0,0.0,91,0.00,,,-99.99,,2013-09-17 09:12:00,
2013-09-17 05:22:00,62.0,60.0,30.12,SSE,158,0.0,0.0,92,0.00,,,-99.99,,2013-09-17 09:22:00,
2013-09-17 05:42:00,62.0,60.0,30.11,SSE,158,0.0,0.0,92,0.00,,,-99.99,,2013-09-17 09:42:00,
2013-09-17 05:53:00,62.0,60.0,30.11,SSE,159,0.0,0.0,92,0.00,,,-99.99,,2013-09-17 09:53:00,
2013-09-17 06:12:00,62.0,60.0,30.10,SSE,161,0.0,0.0,92,0.00,,,-99.99,,2013-09-17 10:12:00,
2013-09-17 06:23:00,62.0,60.0,30.10,SSE,161,0.0,0.0,92,0.00,,,-99.99,,2013-09-17 10:23:00,
2013-09-17 06:42:00,62.0,60.0,30.11,SSE,161,0.0,0.0,92,0.00,,,-99.99,,2013-09-17 10:42:00,
2013-09-17 06:53:00,62.0,60.0,30.09,SSE,161,0.0,0.0,93,0.01,,,-99.99,,2013-09-17 10:53:00,
2013-09-17 07:11:00,62.0,60.0,30.08,SSE,161,0.0,0.0,93,0.02,,,-99.99,,2013-09-17 11:11:00,
2013-09-17 07:22:00,62.0,60.0,30.09,SSE,166,0.0,0.0,94,0.02,,,-99.99,,2013-09-17 11:22:00,
2013-09-17 07:52:00,62.0,60.0,30.09,SSE,166,0.0,0.0,94,0.03,,,-99.99,,2013-09-17 11:52:00,
2013-09-17 08:12:00,62.0,60.0,30.09,SSE,166,0.0,0.0,94,0.02,,,-99.99,,2013-09-17 12:12:00,
2013-09-17 08:22:00,62.0,61.0,30.09,SSE,163,0.0,0.0,95,0.04,,,-99.99,,2013-09-17 12:22:00,
2013-09-17 08:52:00,62.0,61.0,30.10,South,170,0.0,0.0,95,0.04,,,-99.99,,2013-09-17 12:52:00,
2013-09-17 09:11:00,62.0,61.0,30.11,South,170,0.0,0.0,95,0.04,,,-99.99,,2013-09-17 13:11:00,
2013-09-17 09:22:00,62.0,61.0,30.11,South,170,0.0,0.0,95,0.05,,,-99.99,,2013-09-17 13:22:00,
2013-09-17 09:52:00,62.0,61.0,30.11,South,170,1.0,1.0,96,0.04,,,-99.99,,2013-09-17 13:52:00,
2013-09-17 10:11:00,62.0,61.0,30.11,South,170,1.0,1.0,96,0.06,,,-99.99,,2013-09-17 14:11:00,
2013-09-17 10:22:00,62.0,61.0,30.11,South,170,0.0,0.0,96,0.07,,,-99.99,,2013-09-17 14:22:00,
2013-09-17 10:52:00,63.0,62.0,30.11,South,170,1.0,1.0,96,0.16,,,-99.99,,2013-09-17 14:52:00,
2013-09-17 11:11:00,63.0,62.0,30.09,South,169,2.0,2.0,96,0.15,,,-99.99,,2013-09-17 15:11:00,
2013-09-17 11:22:00,63.0,62.0,30.09,South,170,0.0,0.0,96,0.14,,,-99.99,,2013-09-17 15:22:00,
2013-09-17 11:44:00,63.0,62.0,30.09,South,170,0.0,0.0,96,0.12,,,-99.99,,2013-09-17 15:44:00,
2013-09-17 11:53:00,64.0,63.0,30.09,South,169,0.0,0.0,96,0.06,,,-99.99,,2013-09-17 15:53:00,
2013-09-17 12:13:00,64.0,63.0,30.09,South,169,0.0,0.0,96,0.02,,,-99.99,,2013-09-17 16:13:00,
2013-09-17 12:23:00,65.0,64.0,30.08,South,169,0.0,0.0,96,0.01,,,-99.99,,2013-09-17 16:23:00,
2013-09-17 12:53:00,65.0,64.0,30.07,SSE,165,0.0,0.0,96,0.01,,,-99.99,,2013-09-17 16:53:00,
2013-09-17 13:12:00,66.0,65.0,30.07,SSE,164,0.0,0.0,96,0.01,,,-99.99,,2013-09-17 17:12:00,
2013-09-17 13:23:00,67.0,66.0,30.10,South,170,3.0,3.0,95,0.01,,,-99.99,,2013-09-17 17:23:00,
2013-09-17 13:43:00,67.0,65.0,30.10,SSE,162,0.0,0.0,94,0.01,,,-99.99,,2013-09-17 17:43:00,
2013-09-17 13:53:00,69.0,67.0,30.09,SSE,158,4.0,4.0,92,0.01,,,-99.99,,2013-09-17 17:53:00,
2013-09-17 14:12:00,70.0,66.0,30.08,SSE,158,6.0,6.0,88,0.00,,,-99.99,,2013-09-17 18:12:00,
2013-09-17 14:22:00,70.0,66.0,30.07,South,171,7.0,7.0,86,0.00,,,-99.99,,2013-09-17 18:22:00,
2013-09-17 14:52:00,73.0,67.0,30.06,South,171,5.0,5.0,82,0.00,,,-99.99,,2013-09-17 18:52:00,
2013-09-17 15:12:00,74.0,67.0,30.04,SE,146,0.0,0.0,78,0.00,,,-99.99,,2013-09-17 19:12:00,
2013-09-17 15:22:00,75.0,67.0,30.03,SSE,167,4.0,4.0,77,0.00,,,-99.99,,2013-09-17 19:22:00,
2013-09-17 15:52:00,77.0,67.0,30.01,South,180,9.0,9.0,71,0.00,,,-99.99,,2013-09-17 19:52:00,
2013-09-17 16:11:00,77.0,67.0,30.01,South,180,13.0,13.0,72,0.00,,,-99.99,,2013-09-17 20:11:00,
2013-09-17 16:22:00,77.0,67.0,30.01,South,178,6.0,6.0,71,0.00,,,-99.99,,2013-09-17 20:22:00,
2013-09-17 16:52:00,77.0,67.0,29.99,SW,223,9.0,9.0,72,0.00,,,-99.99,,2013-09-17 20:52:00,
2013-09-17 17:12:00,76.0,67.0,29.99,South,177,6.0,6.0,74,0.00,,,-99.99,,2013-09-17 21:12:00,
2013-09-17 17:22:00,76.0,67.0,29.98,SSE,159,5.0,5.0,74,0.00,,,-99.99,,2013-09-17 21:22:00,
2013-09-17 17:54:00,75.0,65.0,29.98,South,186,10.0,10.0,72,0.00,,,-99.99,,2013-09-17 21:54:00,
2013-09-17 18:13:00,75.0,65.0,29.98,South,191,6.0,6.0,72,0.00,,,-99.99,,2013-09-17 22:13:00,
2013-09-17 18:24:00,75.0,66.0,29.97,SSE,158,9.0,9.0,74,0.00,,,-99.99,,2013-09-17 22:24:00,
2013-09-17 18:53:00,74.0,66.0,29.96,SSE,161,6.0,6.0,75,0.00,,,-99.99,,2013-09-17 22:53:00,
2013-09-17 19:22:00,74.0,66.0,29.96,SSE,164,4.0,4.0,76,0.00,,,-99.99,,2013-09-17 23:22:00,
2013-09-17 19:52:00,73.0,66.0,29.95,South,178,3.0,3.0,78,0.00,,,-99.99,,2013-09-17 23:52:00,
2013-09-17 20:11:00,73.0,66.0,29.95,South,185,0.0,0.0,79,0.00,,,-99.99,,2013-09-18 00:11:00,
2013-09-17 20:22:00,72.0,65.0,29.95,SSE,168,3.0,3.0,80,0.00,,,-99.99,,2013-09-18 00:22:00,
2013-09-17 20:42:00,72.0,66.0,29.94,SSE,165,0.0,0.0,81,0.00,,,-99.99,,2013-09-18 00:42:00,
2013-09-17 20:52:00,72.0,66.0,29.93,SSE,161,0.0,0.0,82,0.00,,,-99.99,,2013-09-18 00:52:00,
2013-09-17 21:11:00,72.0,67.0,29.94,South,174,5.0,5.0,83,0.00,,,0.27,,2013-09-18 01:11:00,
2013-09-17 21:22:00,71.0,66.0,29.94,SE,143,0.0,0.0,83,0.00,,,0.27,,2013-09-18 01:22:00,
2013-09-17 21:52:00,70.0,65.0,29.94,SSE,164,0.0,0.0,84,0.00,,,0.27,,2013-09-18 01:52:00,
2013-09-17 22:11:00,70.0,65.0,29.95,South,172,0.0,0.0,85,0.00,,,0.27,,2013-09-18 02:11:00,
2013-09-17 22:22:00,70.0,66.0,29.95,South,169,0.0,0.0,86,0.00,,,0.27,,2013-09-18 02:22:00,
2013-09-17 22:43:00,69.0,65.0,29.96,South,173,0.0,0.0,87,0.00,,,0.27,,2013-09-18 02:43:00,
2013-09-17 22:52:00,69.0,65.0,29.96,South,169,1.0,1.0,88,0.00,,,0.27,,2013-09-18 02:52:00,
2013-09-17 23:12:00,69.0,65.0,29.97,SSE,165,0.0,0.0,88,0.00,,,0.27,,2013-09-18 03:12:00,
2013-09-17 23:23:00,69.0,66.0,29.97,South,173,1.0,1.0,89,0.00,,,0.27,,2013-09-18 03:23:00,
2013-09-17 23:44:00,69.0,66.0,29.97,SSE,168,0.0,0.0,89,0.00,,,0.27,,2013-09-18 03:44:00,
2013-09-17 23:54:00,69.0,66.0,29.97,South,171,5.0,5.0,90,0.00,,,0.27,,2013-09-18 03:54:00,